Time;durP1;ratioP1;P1;durP2;ratioP2;P2;SDS_P1;SDS_P2;PMS_P1;PMS_P2;Temp;Humidity;BMP_temperature;BMP_pressure;BME280_temperature;BME280_humidity;BME280_pressure;Samples;Min_cycle;Max_cycle;Signal;HPM_P1;HPM_P2
2022/09/26 00:00:40;;;;;;;;;;;8.50;99.90;;;;;;5073422;28;19916;-69
2022/09/26 00:03:05;;;;;;;;;;;8.60;99.90;;;;;;5073709;28;19908;-70
2022/09/26 00:05:32;;;;;;;;;;;8.70;99.90;;;;;;5073422;28;19954;-70
2022/09/26 00:07:57;;;;;;;;;;;8.70;99.90;;;;;;5073798;28;19916;-67
2022/09/26 00:10:23;;;;;;;;;;;8.80;99.90;;;;;;5077366;28;19908;-70
2022/09/26 00:12:48;;;;;;;;;;;8.80;99.90;;;;;;5077294;28;19912;-67
2022/09/26 00:15:14;;;;;;;;;;;8.80;99.90;;;;;;5077280;28;19944;-67
2022/09/26 00:17:39;;;;;;;;;;;8.90;99.90;;;;;;5077204;28;19916;-68
2022/09/26 00:20:05;;;;;;;;;;;8.90;99.90;;;;;;5077156;28;19916;-68
2022/09/26 00:22:31;;;;;;;;;;;9.00;99.90;;;;;;5059267;28;19909;-67
2022/09/26 00:24:56;;;;;;;;;;;9.00;99.90;;;;;;5077049;28;19909;-67
2022/09/26 00:27:22;;;;;;;;;;;9.00;99.90;;;;;;5076931;28;19966;-68
2022/09/26 00:29:47;;;;;;;;;;;9.10;99.90;;;;;;5076956;28;19908;-68
2022/09/26 00:32:12;;;;;;;;;;;9.10;99.90;;;;;;5077178;28;19915;-68
2022/09/26 00:34:38;;;;;;;;;;;9.10;99.90;;;;;;5058897;28;20007;-67
2022/09/26 00:37:03;;;;;;;;;;;9.20;99.90;;;;;;5077058;28;19909;-67
2022/09/26 00:39:29;;;;;;;;;;;9.40;99.90;;;;;;5076763;28;19967;-68
2022/09/26 00:41:54;;;;;;;;;;;9.40;99.90;;;;;;5076689;28;19962;-68
2022/09/26 00:44:40;;;;;;;;;;;9.50;99.90;;;;;;5076929;28;19952;-68
2022/09/26 00:47:10;;;;;;;;;;;9.60;99.90;;;;;;5076309;28;19928;-68
2022/09/26 00:49:37;;;;;;;;;;;9.60;99.90;;;;;;5076598;28;19909;-68
2022/09/26 00:52:06;;;;;;;;;;;9.60;99.90;;;;;;5076848;28;20354;-68
2022/09/26 00:54:33;;;;;;;;;;;9.70;99.90;;;;;;5076562;28;19912;-67
2022/09/26 00:57:03;;;;;;;;;;;9.60;99.90;;;;;;5076704;28;20380;-67
2022/09/26 00:59:32;;;;;;;;;;;9.60;99.90;;;;;;5059026;28;19908;-67
2022/09/26 01:01:58;;;;;;;;;;;9.60;99.90;;;;;;5076391;28;19974;-68
2022/09/26 01:04:26;;;;;;;;;;;9.60;99.90;;;;;;5076590;28;20355;-68
2022/09/26 01:06:52;;;;;;;;;;;9.60;99.90;;;;;;5076486;28;19966;-68
2022/09/26 01:09:18;;;;;;;;;;;9.70;99.90;;;;;;5076516;28;20370;-68
2022/09/26 01:11:44;;;;;;;;;;;9.70;99.90;;;;;;5076450;28;19908;-67
2022/09/26 01:14:10;;;;;;;;;;;9.60;99.90;;;;;;5076157;28;19958;-68
2022/09/26 01:16:37;;;;;;;;;;;9.60;99.90;;;;;;5076119;28;19909;-68
2022/09/26 01:19:09;;;;;;;;;;;9.60;99.90;;;;;;5075602;28;20294;-68
2022/09/26 01:24:41;;;;;;;;;;;9.50;99.90;;;;;;5091260;27;19913;-67
2022/09/26 01:27:12;;;;;;;;;;;9.40;99.90;;;;;;5091180;28;19975;-68
2022/09/26 01:29:58;;;;;;;;;;;9.30;99.90;;;;;;5091374;28;19955;-68
2022/09/26 01:32:48;;;;;;;;;;;9.30;99.90;;;;;;5091133;28;19909;-68
2022/09/26 01:35:33;;;;;;;;;;;9.40;99.90;;;;;;5091239;28;20375;-68
2022/09/26 01:38:08;;;;;;;;;;;9.40;99.90;;;;;;5090976;28;19908;-68
2022/09/26 01:40:53;;;;;;;;;;;9.40;99.90;;;;;;5091147;28;19915;-68
2022/09/26 01:43:22;;;;;;;;;;;9.40;99.90;;;;;;5090802;28;19961;-68
2022/09/26 01:45:59;;;;;;;;;;;9.40;99.90;;;;;;5090831;28;19975;-68
2022/09/26 01:48:36;;;;;;;;;;;9.40;99.90;;;;;;5090736;28;19915;-68
2022/09/26 01:51:05;;;;;;;;;;;9.50;99.90;;;;;;5090955;28;19952;-67
2022/09/26 01:53:34;;;;;;;;;;;9.60;99.90;;;;;;5090659;28;19909;-67
2022/09/26 01:56:02;;;;;;;;;;;9.70;99.90;;;;;;5089333;28;19908;-67
2022/09/26 01:58:48;;;;;;;;;;;9.80;99.90;;;;;;5090556;28;20002;-67
2022/09/26 02:01:15;;;;;;;;;;;9.90;99.90;;;;;;5090558;28;19915;-67
2022/09/26 02:03:44;;;;;;;;;;;10.00;99.90;;;;;;5090350;28;19912;-69
2022/09/26 02:06:14;;;;;;;;;;;10.00;99.90;;;;;;5090428;28;19944;-67
2022/09/26 02:08:40;;;;;;;;;;;10.00;99.90;;;;;;5090633;28;19915;-68
2022/09/26 02:11:11;;;;;;;;;;;10.10;99.90;;;;;;5090569;28;19909;-67
2022/09/26 02:13:41;;;;;;;;;;;10.10;99.90;;;;;;5090558;28;19908;-68
2022/09/26 02:16:09;;;;;;;;;;;10.10;99.90;;;;;;5090478;28;19909;-67
2022/09/26 02:18:52;;;;;;;;;;;10.20;99.90;;;;;;5090172;28;19908;-68
2022/09/26 02:21:19;;;;;;;;;;;10.20;99.90;;;;;;5090094;28;19913;-67
2022/09/26 02:23:46;;;;;;;;;;;10.20;99.90;;;;;;5105540;28;19926;-68
2022/09/26 02:26:12;;;;;;;;;;;10.20;99.90;;;;;;5110631;28;20326;-68
2022/09/26 02:28:37;;;;;;;;;;;10.20;99.90;;;;;;5110329;28;19944;-67
2022/09/26 02:31:04;;;;;;;;;;;10.20;99.90;;;;;;5110263;28;19989;-68
2022/09/26 02:33:30;;;;;;;;;;;10.30;99.90;;;;;;5109787;28;19908;-67
2022/09/26 02:35:56;;;;;;;;;;;10.30;99.90;;;;;;5096417;28;19909;-68
2022/09/26 02:38:25;;;;;;;;;;;10.30;99.90;;;;;;5096585;28;19990;-68
2022/09/26 02:41:12;;;;;;;;;;;10.30;99.90;;;;;;5096826;28;19915;-68
2022/09/26 02:43:42;;;;;;;;;;;10.30;99.90;;;;;;5096475;28;19912;-68
2022/09/26 02:46:16;;;;;;;;;;;10.30;99.90;;;;;;5096718;28;20341;-68
2022/09/26 02:48:47;;;;;;;;;;;10.30;99.90;;;;;;5096594;28;19959;-68
2022/09/26 02:54:09;;;;;;;;;;;10.40;99.90;;;;;;5091321;27;19913;-67
2022/09/26 02:56:44;;;;;;;;;;;10.40;99.90;;;;;;5091127;28;20315;-67
2022/09/26 02:59:20;;;;;;;;;;;10.40;99.90;;;;;;5091436;28;20408;-67
2022/09/26 03:01:57;;;;;;;;;;;10.40;99.90;;;;;;5089813;28;19909;-68
2022/09/26 03:04:29;;;;;;;;;;;10.40;99.90;;;;;;5091062;28;19909;-67
2022/09/26 03:06:57;;;;;;;;;;;10.40;99.90;;;;;;5090912;28;19954;-68
2022/09/26 03:09:24;;;;;;;;;;;10.30;99.90;;;;;;5090892;28;20007;-68
2022/09/26 03:11:51;;;;;;;;;;;10.30;99.90;;;;;;5090804;28;19916;-68
2022/09/26 03:14:17;;;;;;;;;;;10.30;99.90;;;;;;5091056;28;19908;-68
2022/09/26 03:16:43;;;;;;;;;;;10.20;99.90;;;;;;5090755;28;19908;-68
2022/09/26 03:19:10;;;;;;;;;;;10.30;99.90;;;;;;5090972;28;19932;-67
2022/09/26 03:21:36;;;;;;;;;;;10.30;99.90;;;;;;5089372;28;19908;-69
2022/09/26 03:24:01;;;;;;;;;;;10.30;99.90;;;;;;5090627;28;19915;-67
2022/09/26 03:26:28;;;;;;;;;;;10.30;99.90;;;;;;5090602;28;20306;-67
2022/09/26 03:28:55;;;;;;;;;;;10.30;99.90;;;;;;5089241;28;19969;-67
2022/09/26 03:31:21;;;;;;;;;;;10.30;99.90;;;;;;5090771;28;20435;-67
2022/09/26 03:33:46;;;;;;;;;;;10.30;99.90;;;;;;5090669;28;19950;-67
2022/09/26 03:36:12;;;;;;;;;;;10.30;99.90;;;;;;5090362;28;19915;-67
2022/09/26 03:38:38;;;;;;;;;;;10.30;99.90;;;;;;5090594;28;19914;-67
2022/09/26 03:41:03;;;;;;;;;;;10.30;99.90;;;;;;5090539;28;19991;-67
2022/09/26 03:43:30;;;;;;;;;;;10.30;99.90;;;;;;5090540;28;19909;-67
2022/09/26 03:45:55;;;;;;;;;;;10.30;99.90;;;;;;5090536;28;19916;-67
2022/09/26 03:48:21;;;;;;;;;;;10.40;99.90;;;;;;5090443;28;20010;-67
2022/09/26 03:50:47;;;;;;;;;;;10.40;99.90;;;;;;5090404;28;19920;-68
2022/09/26 03:53:12;;;;;;;;;;;10.40;99.90;;;;;;5104036;28;19920;-68
2022/09/26 03:55:38;;;;;;;;;;;10.50;99.90;;;;;;5110628;28;19987;-67
2022/09/26 03:58:03;;;;;;;;;;;10.50;99.90;;;;;;5110250;28;19908;-67
2022/09/26 04:00:36;;;;;;;;;;;10.60;99.90;;;;;;5110536;28;19951;-67
2022/09/26 04:03:02;;;;;;;;;;;10.60;99.90;;;;;;5110451;28;20367;-67
2022/09/26 04:05:28;;;;;;;;;;;10.60;99.90;;;;;;5096253;28;19923;-67
2022/09/26 04:07:54;;;;;;;;;;;10.60;99.90;;;;;;5096551;28;20430;-68
2022/09/26 04:10:19;;;;;;;;;;;10.60;99.90;;;;;;5096798;28;20046;-67
2022/09/26 04:12:45;;;;;;;;;;;10.60;99.90;;;;;;5096684;28;19912;-67
2022/09/26 04:15:10;;;;;;;;;;;10.60;99.90;;;;;;5096403;28;20404;-67
2022/09/26 04:17:36;;;;;;;;;;;10.60;99.90;;;;;;5096309;28;20358;-67
2022/09/26 04:20:01;;;;;;;;;;;10.60;99.90;;;;;;5078142;28;19908;-67
2022/09/26 04:22:27;;;;;;;;;;;10.60;99.90;;;;;;5096525;28;20362;-68
2022/09/26 04:24:53;;;;;;;;;;;10.60;99.90;;;;;;5096244;28;20320;-68
2022/09/26 04:27:18;;;;;;;;;;;10.60;99.90;;;;;;5096436;28;19912;-68
2022/09/26 04:29:44;;;;;;;;;;;10.60;99.90;;;;;;5096151;28;19958;-68
2022/09/26 04:32:10;;;;;;;;;;;10.60;99.90;;;;;;5096045;28;19916;-68
2022/09/26 04:34:37;;;;;;;;;;;10.60;99.90;;;;;;5096065;28;19915;-67
2022/09/26 04:37:02;;;;;;;;;;;10.60;99.90;;;;;;5078512;28;20389;-68
2022/09/26 04:39:28;;;;;;;;;;;10.60;99.90;;;;;;5096221;28;19909;-68
2022/09/26 04:41:53;;;;;;;;;;;10.60;99.90;;;;;;5095919;28;20397;-68
2022/09/26 04:44:19;;;;;;;;;;;10.60;99.90;;;;;;5096081;28;19908;-68
2022/09/26 04:46:44;;;;;;;;;;;10.60;99.90;;;;;;5096072;28;20366;-68
2022/09/26 04:49:10;;;;;;;;;;;10.60;99.90;;;;;;5096020;28;19919;-68
2022/09/26 04:51:36;;;;;;;;;;;10.60;99.90;;;;;;5095584;28;20365;-67
2022/09/26 04:54:01;;;;;;;;;;;10.60;99.90;;;;;;5095679;28;19963;-67
2022/09/26 04:56:28;;;;;;;;;;;10.60;99.90;;;;;;5095577;28;19931;-68
2022/09/26 04:58:55;;;;;;;;;;;10.60;99.90;;;;;;5095807;28;19954;-68
2022/09/26 05:01:21;;;;;;;;;;;10.60;99.90;;;;;;5095780;28;20393;-68
2022/09/26 05:03:46;;;;;;;;;;;10.60;99.90;;;;;;5095474;28;19909;-68
2022/09/26 05:06:13;;;;;;;;;;;10.60;99.90;;;;;;5095702;28;19934;-68
2022/09/26 05:08:40;;;;;;;;;;;10.60;99.90;;;;;;5095660;28;19957;-68
2022/09/26 05:11:06;;;;;;;;;;;10.60;99.90;;;;;;5095624;28;19908;-67
2022/09/26 05:13:31;;;;;;;;;;;10.60;99.90;;;;;;5095281;28;19913;-67
2022/09/26 05:15:58;;;;;;;;;;;10.60;99.90;;;;;;5094287;28;20057;-68
2022/09/26 05:18:25;;;;;;;;;;;10.60;99.90;;;;;;5095221;28;19915;-68
2022/09/26 05:20:51;;;;;;;;;;;10.60;99.90;;;;;;5095426;28;20007;-68
2022/09/26 05:26:19;;;;;;;;;;;10.60;99.90;;;;;;5094813;28;19908;-68
2022/09/26 05:28:47;;;;;;;;;;;10.60;99.90;;;;;;5095237;28;19915;-68
2022/09/26 05:31:13;;;;;;;;;;;10.60;99.90;;;;;;5095192;28;19908;-68
2022/09/26 05:33:38;;;;;;;;;;;10.60;99.90;;;;;;5095128;28;19912;-68
2022/09/26 05:36:04;;;;;;;;;;;10.60;99.90;;;;;;5095068;28;19914;-68
2022/09/26 05:38:29;;;;;;;;;;;10.60;99.90;;;;;;5095033;28;19920;-68
2022/09/26 05:40:55;;;;;;;;;;;10.60;99.90;;;;;;5094997;28;20370;-68
2022/09/26 05:43:21;;;;;;;;;;;10.60;99.90;;;;;;5094939;28;19912;-68
2022/09/26 05:45:48;;;;;;;;;;;10.60;99.90;;;;;;5094910;28;20295;-68
2022/09/26 05:48:15;;;;;;;;;;;10.70;99.90;;;;;;5094847;28;19915;-68
2022/09/26 05:50:42;;;;;;;;;;;10.60;99.90;;;;;;5094518;28;19908;-68
2022/09/26 05:53:08;;;;;;;;;;;10.60;99.90;;;;;;5094321;28;19920;-68
2022/09/26 05:55:33;;;;;;;;;;;10.60;99.90;;;;;;5094339;28;19915;-68
2022/09/26 05:57:59;;;;;;;;;;;10.70;99.90;;;;;;5092496;28;20294;-67
2022/09/26 06:00:25;;;;;;;;;;;10.70;99.90;;;;;;5075142;28;20004;-67
2022/09/26 06:02:53;;;;;;;;;;;10.70;99.90;;;;;;5094483;28;19978;-68
2022/09/26 06:05:18;;;;;;;;;;;10.70;99.90;;;;;;5094167;28;19916;-68
2022/09/26 06:07:44;;;;;;;;;;;10.80;99.90;;;;;;5096824;28;19920;-68
2022/09/26 06:10:10;;;;;;;;;;;10.80;99.90;;;;;;5110861;28;20104;-68
2022/09/26 06:12:35;;;;;;;;;;;10.80;99.90;;;;;;5075997;28;20287;-67
2022/09/26 06:15:01;;;;;;;;;;;10.80;99.90;;;;;;5094118;28;19912;-67
2022/09/26 06:17:26;;;;;;;;;;;10.90;99.90;;;;;;5093817;28;19909;-68
2022/09/26 06:19:52;;;;;;;;;;;10.90;99.90;;;;;;5093450;28;19954;-67
2022/09/26 06:22:17;;;;;;;;;;;10.90;99.90;;;;;;5106262;28;19918;-68
2022/09/26 06:24:42;;;;;;;;;;;11.00;99.90;;;;;;5108459;28;20378;-66
2022/09/26 06:27:08;;;;;;;;;;;11.00;99.90;;;;;;5111836;28;19940;-67
2022/09/26 06:29:33;;;;;;;;;;;11.10;99.90;;;;;;5107622;28;19916;-66
2022/09/26 06:31:59;;;;;;;;;;;11.20;99.90;;;;;;5084480;28;19923;-67
2022/09/26 06:34:25;;;;;;;;;;;11.30;99.90;;;;;;5099111;28;19956;-68
2022/09/26 06:36:50;;;;;;;;;;;11.50;99.90;;;;;;5076513;28;20002;-68
2022/09/26 06:39:16;;;;;;;;;;;;;;;;;;5094875;28;19912;-66
2022/09/26 06:41:42;;;;;;;;;;;12.40;99.90;;;;;;5091984;28;19912;-65
2022/09/26 06:44:07;;;;;;;;;;;12.90;99.90;;;;;;5087880;28;20380;-66
2022/09/26 06:46:33;;;;;;;;;;;13.10;99.90;;;;;;5094341;28;20038;-67
2022/09/26 06:48:58;;;;;;;;;;;13.30;99.90;;;;;;5107247;28;19911;-65
2022/09/26 06:51:24;;;;;;;;;;;13.30;99.90;;;;;;5098972;28;19947;-66
2022/09/26 06:53:49;;;;;;;;;;;13.40;99.90;;;;;;5091746;28;19995;-66
2022/09/26 06:56:17;;;;;;;;;;;13.40;99.90;;;;;;5094333;28;20385;-66
2022/09/26 06:58:44;;;;;;;;;;;14.00;99.90;;;;;;5100019;28;19962;-66
2022/09/26 07:01:10;;;;;;;;;;;;;;;;;;5075059;28;19931;-65
2022/09/26 07:03:36;;;;;;;;;;;14.90;99.90;;;;;;5103403;28;20317;-66
2022/09/26 07:06:02;;;;;;;;;;;14.40;99.90;;;;;;5093541;28;19912;-65
2022/09/26 07:08:27;;;;;;;;;;;14.00;99.90;;;;;;5092719;28;20027;-66
2022/09/26 07:10:58;;;;;;;;;;;13.70;99.90;;;;;;5083687;28;20007;-66
2022/09/26 07:13:23;;;;;;;;;;;13.80;99.90;;;;;;5084867;28;19972;-66
2022/09/26 07:15:49;;;;;;;;;;;13.70;99.90;;;;;;5092158;28;19915;-66
2022/09/26 07:18:16;;;;;;;;;;;13.50;99.90;;;;;;5084697;28;20400;-65
2022/09/26 07:20:46;;;;;;;;;;;13.20;99.90;;;;;;5079284;28;20322;-65
2022/09/26 07:23:12;;;;;;;;;;;13.00;99.90;;;;;;5078603;28;19913;-65
2022/09/26 07:25:38;;;;;;;;;;;12.90;99.90;;;;;;5089072;28;19912;-66
2022/09/26 07:28:05;;;;;;;;;;;12.80;99.90;;;;;;5082496;28;20006;-65
2022/09/26 07:30:30;;;;;;;;;;;12.90;99.90;;;;;;5082215;28;19982;-67
2022/09/26 07:32:57;;;;;;;;;;;13.00;99.90;;;;;;5103957;28;19916;-66
2022/09/26 07:35:23;;;;;;;;;;;13.10;99.90;;;;;;5092368;28;19951;-65
2022/09/26 07:37:50;;;;;;;;;;;13.10;99.90;;;;;;5088511;28;19962;-65
2022/09/26 07:40:19;;;;;;;;;;;13.30;99.90;;;;;;5092936;28;20427;-68
2022/09/26 07:42:45;;;;;;;;;;;13.30;99.90;;;;;;5083745;28;19916;-66
2022/09/26 07:45:11;;;;;;;;;;;13.10;99.90;;;;;;5095182;28;19942;-66
2022/09/26 07:50:22;;;;;;;;;;;13.00;99.90;;;;;;5094561;28;19962;-65
2022/09/26 07:52:48;;;;;;;;;;;13.00;99.90;;;;;;5090669;28;19920;-66
2022/09/26 07:55:15;;;;;;;;;;;12.90;99.90;;;;;;5094787;28;19912;-66
2022/09/26 07:57:41;;;;;;;;;;;12.90;99.90;;;;;;5088156;28;19916;-65
2022/09/26 08:00:11;;;;;;;;;;;12.90;99.90;;;;;;5095360;28;19912;-64
2022/09/26 08:02:39;;;;;;;;;;;12.90;99.90;;;;;;5095965;28;19927;-64
2022/09/26 08:05:05;;;;;;;;;;;12.90;99.90;;;;;;5089534;28;20389;-65
2022/09/26 08:07:31;;;;;;;;;;;12.90;99.90;;;;;;5085581;28;19917;-65
2022/09/26 08:09:57;;;;;;;;;;;12.80;99.90;;;;;;5094542;28;19926;-65
2022/09/26 08:12:23;;;;;;;;;;;12.90;99.90;;;;;;5097105;28;19916;-65
2022/09/26 08:14:50;;;;;;;;;;;12.90;99.90;;;;;;5095019;28;19916;-65
2022/09/26 08:17:15;;;;;;;;;;;12.90;99.90;;;;;;5086809;28;20003;-65
2022/09/26 08:19:41;;;;;;;;;;;12.90;99.90;;;;;;5095739;28;19962;-66
2022/09/26 08:22:07;;;;;;;;;;;12.90;99.90;;;;;;5090728;28;19951;-67
2022/09/26 08:24:32;;;;;;;;;;;12.90;99.90;;;;;;5076110;28;19909;-65
2022/09/26 08:26:59;;;;;;;;;;;12.90;99.90;;;;;;5080455;28;19951;-66
2022/09/26 08:29:25;;;;;;;;;;;13.00;99.90;;;;;;5089494;28;19999;-67
2022/09/26 08:31:50;;;;;;;;;;;13.00;99.90;;;;;;5093880;28;19923;-67
2022/09/26 08:34:16;;;;;;;;;;;12.90;99.90;;;;;;5078796;28;19920;-64
2022/09/26 08:36:42;;;;;;;;;;;12.90;99.90;;;;;;5097436;28;19912;-65
2022/09/26 08:39:08;;;;;;;;;;;13.00;99.90;;;;;;5070493;28;19927;-63
2022/09/26 08:41:48;;;;;;;;;;;13.00;99.90;;;;;;5094177;28;20384;-65
2022/09/26 08:44:33;;;;;;;;;;;13.10;99.90;;;;;;5091639;28;19912;-67
2022/09/26 08:47:05;;;;;;;;;;;13.00;99.90;;;;;;5084839;28;19957;-66
2022/09/26 08:49:38;;;;;;;;;;;13.00;99.90;;;;;;5094554;28;20395;-67
2022/09/26 08:52:09;;;;;;;;;;;13.00;99.90;;;;;;5083779;28;20015;-72
2022/09/26 08:54:38;;;;;;;;;;;13.10;99.90;;;;;;5088969;28;20424;-66
2022/09/26 08:57:09;;;;;;;;;;;13.10;99.90;;;;;;5088719;28;19931;-64
2022/09/26 08:59:38;;;;;;;;;;;13.10;99.90;;;;;;5091159;28;20357;-66
2022/09/26 09:02:09;;;;;;;;;;;13.10;99.90;;;;;;5091539;28;19919;-66
2022/09/26 09:04:56;;;;;;;;;;;12.90;99.90;;;;;;5062784;28;19954;-67
2022/09/26 09:07:23;;;;;;;;;;;12.90;99.90;;;;;;5091568;28;19918;-67
2022/09/26 09:09:50;;;;;;;;;;;12.80;99.90;;;;;;5089596;28;19913;-66
2022/09/26 09:12:21;;;;;;;;;;;12.70;99.90;;;;;;5081223;28;19936;-66
2022/09/26 09:15:05;;;;;;;;;;;12.60;99.90;;;;;;5087564;28;19958;-65
2022/09/26 09:17:46;;;;;;;;;;;12.40;99.90;;;;;;5083687;28;19924;-66
2022/09/26 09:20:24;;;;;;;;;;;12.40;99.90;;;;;;5093236;28;20427;-68
2022/09/26 09:23:06;;;;;;;;;;;12.30;99.90;;;;;;5086051;28;19912;-67
2022/09/26 09:25:36;;;;;;;;;;;12.30;99.90;;;;;;5092165;28;19912;-67
2022/09/26 09:28:08;;;;;;;;;;;12.30;99.90;;;;;;5095362;28;19912;-67
2022/09/26 09:30:53;;;;;;;;;;;12.20;99.90;;;;;;5077724;28;19913;-67
2022/09/26 09:33:22;;;;;;;;;;;12.10;99.90;;;;;;5089209;28;19963;-68
2022/09/26 09:36:07;;;;;;;;;;;12.10;99.90;;;;;;5097615;28;20015;-64
2022/09/26 09:38:34;;;;;;;;;;;12.20;99.90;;;;;;5086660;28;19938;-65
2022/09/26 09:41:12;;;;;;;;;;;12.10;99.90;;;;;;5098008;28;19919;-65
2022/09/26 09:43:40;;;;;;;;;;;12.10;99.90;;;;;;5098826;28;19954;-66
2022/09/26 09:46:15;;;;;;;;;;;12.10;99.90;;;;;;5093520;28;19989;-65
2022/09/26 09:48:41;;;;;;;;;;;12.20;99.90;;;;;;5076888;28;19959;-65
2022/09/26 09:51:17;;;;;;;;;;;12.20;99.90;;;;;;5089538;28;20311;-66
2022/09/26 09:54:02;;;;;;;;;;;12.10;99.90;;;;;;5089386;28;20011;-66
2022/09/26 09:56:49;;;;;;;;;;;12.10;99.90;;;;;;5087570;28;19912;-66
2022/09/26 09:59:34;;;;;;;;;;;12.10;99.90;;;;;;5089984;28;19956;-65
2022/09/26 10:02:20;;;;;;;;;;;11.90;99.90;;;;;;5089255;28;19970;-66
2022/09/26 10:04:49;;;;;;;;;;;11.80;99.90;;;;;;5089512;28;19912;-67
2022/09/26 10:07:15;;;;;;;;;;;11.70;99.90;;;;;;5074627;28;19958;-67
2022/09/26 10:09:42;;;;;;;;;;;11.70;99.90;;;;;;5084494;28;19947;-66
2022/09/26 10:12:13;;;;;;;;;;;11.70;99.90;;;;;;5093480;28;20327;-66
2022/09/26 10:14:46;;;;;;;;;;;11.70;99.90;;;;;;5092978;28;20008;-65
2022/09/26 10:17:13;;;;;;;;;;;11.70;99.90;;;;;;5090127;28;20012;-66
2022/09/26 10:19:39;;;;;;;;;;;11.70;99.90;;;;;;5097144;28;19912;-66
2022/09/26 10:22:10;;;;;;;;;;;11.70;99.90;;;;;;5092657;28;19912;-66
2022/09/26 10:24:39;;;;;;;;;;;11.70;99.90;;;;;;5092689;28;19936;-66
2022/09/26 10:27:25;;;;;;;;;;;11.70;99.90;;;;;;5089522;28;20435;-65
2022/09/26 10:29:58;;;;;;;;;;;11.70;99.90;;;;;;5094515;28;19922;-66
2022/09/26 10:32:25;;;;;;;;;;;11.80;99.90;;;;;;5092079;28;19969;-66
2022/09/26 10:35:14;;;;;;;;;;;11.80;99.90;;;;;;5095595;28;20292;-65
2022/09/26 10:37:40;;;;;;;;;;;11.80;99.90;;;;;;5079579;28;20286;-66
2022/09/26 10:40:53;;;;;;;;;;;11.80;99.90;;;;;;5091234;28;20396;-65
2022/09/26 10:43:22;;;;;;;;;;;11.80;99.90;;;;;;5092042;28;20340;-66
2022/09/26 10:45:48;;;;;;;;;;;11.90;99.90;;;;;;5088142;28;19916;-60
2022/09/26 10:48:20;;;;;;;;;;;11.80;99.90;;;;;;5086307;28;19912;-61
2022/09/26 10:50:50;;;;;;;;;;;11.80;99.90;;;;;;5087915;28;19935;-61
2022/09/26 10:53:16;;;;;;;;;;;11.90;99.90;;;;;;5079818;28;19925;-62
2022/09/26 10:55:44;;;;;;;;;;;12.00;99.90;;;;;;5076987;28;19920;-60
2022/09/26 10:58:16;;;;;;;;;;;12.10;99.90;;;;;;5070832;28;20353;-61
2022/09/26 11:00:42;;;;;;;;;;;12.30;99.90;;;;;;5063679;28;20359;-61
2022/09/26 11:03:09;;;;;;;;;;;12.30;99.90;;;;;;5061825;28;19948;-61
2022/09/26 11:06:07;;;;;;;;;;;12.50;99.90;;;;;;5068801;28;19974;-60
2022/09/26 11:08:30;;;;;;;;;;;12.40;99.90;;;;;;5066068;28;19954;-62
2022/09/26 11:10:57;;;;;;;;;;;12.50;99.90;;;;;;5098768;28;19947;-61
2022/09/26 11:13:24;;;;;;;;;;;12.60;99.90;;;;;;5080690;28;19939;-61
2022/09/26 11:16:00;;;;;;;;;;;12.60;99.90;;;;;;5078429;28;20350;-61
2022/09/26 11:18:42;;;;;;;;;;;12.70;99.90;;;;;;5082384;28;19913;-63
2022/09/26 11:21:20;;;;;;;;;;;12.60;99.90;;;;;;5073357;28;20011;-61
2022/09/26 11:23:49;;;;;;;;;;;12.70;99.90;;;;;;5072724;28;19913;-61
2022/09/26 11:26:35;;;;;;;;;;;12.70;99.90;;;;;;5091460;28;20255;-61
2022/09/26 11:29:20;;;;;;;;;;;12.80;99.90;;;;;;5084851;28;19913;-61
2022/09/26 11:31:46;;;;;;;;;;;12.80;99.90;;;;;;5072971;28;20418;-60
2022/09/26 11:34:15;;;;;;;;;;;12.80;99.90;;;;;;5066352;28;19924;-61
2022/09/26 11:36:59;;;;;;;;;;;12.80;99.90;;;;;;5074481;28;20022;-61
2022/09/26 11:39:44;;;;;;;;;;;12.80;99.90;;;;;;5073582;28;20357;-60
2022/09/26 11:42:20;;;;;;;;;;;12.80;99.90;;;;;;5072728;28;20047;-60
2022/09/26 11:44:52;;;;;;;;;;;12.60;99.90;;;;;;5063987;28;19913;-60
2022/09/26 11:47:37;;;;;;;;;;;12.60;99.90;;;;;;5063115;28;19917;-62
2022/09/26 11:50:22;;;;;;;;;;;12.60;99.90;;;;;;5059720;28;20419;-61
2022/09/26 11:52:55;;;;;;;;;;;12.60;99.90;;;;;;5085080;28;19928;-62
2022/09/26 11:55:29;;;;;;;;;;;12.50;99.90;;;;;;5096399;28;19934;-61
2022/09/26 11:58:15;;;;;;;;;;;12.50;99.90;;;;;;5096026;28;19920;-62
2022/09/26 12:00:46;;;;;;;;;;;12.60;99.90;;;;;;5108198;28;19915;-62
2022/09/26 12:03:32;;;;;;;;;;;12.60;99.90;;;;;;5099447;28;19916;-63
2022/09/26 12:06:17;;;;;;;;;;;12.60;99.90;;;;;;5107651;28;20346;-63
2022/09/26 12:09:03;;;;;;;;;;;12.80;99.90;;;;;;5084934;28;20002;-62
2022/09/26 12:11:35;;;;;;;;;;;13.00;99.90;;;;;;5105605;28;19912;-62
2022/09/26 12:14:08;;;;;;;;;;;13.20;99.90;;;;;;5095856;28;20350;-62
2022/09/26 12:16:39;;;;;;;;;;;13.30;99.90;;;;;;5110476;28;19933;-62
2022/09/26 12:19:13;;;;;;;;;;;13.40;99.90;;;;;;5111900;28;19912;-62
2022/09/26 12:22:27;;;;;;;;;;;13.40;99.90;;;;;;5097196;28;20044;-62
2022/09/26 12:24:35;;;;;;;;;;;13.50;99.90;;;;;;5093011;28;20003;-62
2022/09/26 12:27:05;;;;;;;;;;;13.60;99.90;;;;;;5084089;28;20485;-62
2022/09/26 12:29:51;;;;;;;;;;;13.60;99.90;;;;;;5111333;28;20274;-61
2022/09/26 12:32:36;;;;;;;;;;;13.70;99.90;;;;;;5099969;28;20448;-61
2022/09/26 12:35:12;;;;;;;;;;;13.60;99.90;;;;;;5095918;28;19908;-62
2022/09/26 12:40:40;;;;;;;;;;;13.60;99.90;;;;;;5089995;27;19917;-60
2022/09/26 12:45:53;;;;;;;;;;;13.60;99.90;;;;;;5070407;28;19923;-61
2022/09/26 12:48:39;;;;;;;;;;;13.50;99.90;;;;;;5035643;28;19919;-61
2022/09/26 12:51:15;;;;;;;;;;;13.50;99.90;;;;;;5061376;28;19913;-62
2022/09/26 12:53:51;;;;;;;;;;;13.40;99.90;;;;;;5069143;28;19967;-60
2022/09/26 12:56:37;;;;;;;;;;;13.50;99.90;;;;;;5070581;28;19908;-60
2022/09/26 12:59:07;;;;;;;;;;;13.60;99.90;;;;;;5066642;28;19965;-60
2022/09/26 13:01:53;;;;;;;;;;;13.60;99.90;;;;;;5063782;28;19924;-60
2022/09/26 13:04:38;;;;;;;;;;;13.50;99.90;;;;;;5034842;28;19932;-60
2022/09/26 13:07:24;;;;;;;;;;;13.50;99.90;;;;;;5052429;28;19913;-61
2022/09/26 13:09:59;;;;;;;;;;;13.60;99.90;;;;;;5053233;28;19913;-60
2022/09/26 13:12:39;;;;;;;;;;;13.60;99.90;;;;;;5070293;28;19909;-60
2022/09/26 13:18:09;;;;;;;;;;;13.60;99.90;;;;;;5070433;28;19939;-61
2022/09/26 13:20:43;;;;;;;;;;;13.60;99.90;;;;;;5066876;28;19919;-61
2022/09/26 13:23:16;;;;;;;;;;;13.60;99.90;;;;;;5058964;28;19963;-61
2022/09/26 13:25:46;;;;;;;;;;;13.60;99.90;;;;;;5070848;28;19913;-60
2022/09/26 13:28:32;;;;;;;;;;;13.60;99.90;;;;;;5070498;28;20000;-60
2022/09/26 13:31:01;;;;;;;;;;;13.60;99.90;;;;;;5068731;28;20287;-61
2022/09/26 13:33:47;;;;;;;;;;;13.50;99.90;;;;;;5074519;28;20344;-61
2022/09/26 13:36:15;;;;;;;;;;;13.40;99.90;;;;;;5063465;28;19917;-61
2022/09/26 13:39:02;;;;;;;;;;;13.40;99.90;;;;;;5051559;28;20379;-61
2022/09/26 13:41:36;;;;;;;;;;;13.30;99.90;;;;;;5057975;28;20261;-62
2022/09/26 13:44:22;;;;;;;;;;;13.20;99.90;;;;;;5049258;28;20334;-60
2022/09/26 13:47:07;;;;;;;;;;;13.20;99.90;;;;;;5049720;28;20490;-60
2022/09/26 13:49:53;;;;;;;;;;;13.10;99.90;;;;;;5033565;28;20442;-61
2022/09/26 13:52:22;;;;;;;;;;;13.00;99.90;;;;;;5050882;28;20370;-61
2022/09/26 13:54:56;;;;;;;;;;;12.90;99.90;;;;;;5065944;28;19952;-60
2022/09/26 13:57:38;;;;;;;;;;;12.80;99.90;;;;;;5069895;28;19920;-61
2022/09/26 14:00:15;;;;;;;;;;;12.70;99.90;;;;;;5058701;28;20318;-63
2022/09/26 14:02:41;;;;;;;;;;;12.70;99.90;;;;;;5068040;28;19966;-61
2022/09/26 14:05:26;;;;;;;;;;;12.70;99.90;;;;;;5068099;28;19912;-60
2022/09/26 14:10:40;;;;;;;;;;;12.70;99.90;;;;;;5063642;28;20015;-60
2022/09/26 14:13:11;;;;;;;;;;;12.70;99.90;;;;;;5066203;28;20336;-61
2022/09/26 14:15:56;;;;;;;;;;;12.70;99.90;;;;;;5054506;28;19920;-61
2022/09/26 14:18:29;;;;;;;;;;;12.80;99.90;;;;;;5069267;28;20275;-60
2022/09/26 14:21:12;;;;;;;;;;;12.70;99.90;;;;;;5069129;28;19932;-60
2022/09/26 14:23:40;;;;;;;;;;;12.70;99.90;;;;;;5062580;28;19920;-60
2022/09/26 14:26:07;;;;;;;;;;;12.70;99.90;;;;;;5068850;28;19913;-61
2022/09/26 14:28:34;;;;;;;;;;;12.80;99.90;;;;;;5060631;28;19999;-60
2022/09/26 14:31:20;;;;;;;;;;;12.80;99.90;;;;;;5049723;28;19927;-61
2022/09/26 14:33:47;;;;;;;;;;;12.70;99.90;;;;;;5038865;28;19921;-61
2022/09/26 14:36:32;;;;;;;;;;;12.70;99.90;;;;;;5037504;28;19924;-60
2022/09/26 14:38:58;;;;;;;;;;;12.70;99.90;;;;;;5034763;28;19936;-60
2022/09/26 14:41:27;;;;;;;;;;;12.60;99.90;;;;;;5050017;28;20363;-60
2022/09/26 14:43:57;;;;;;;;;;;12.60;99.90;;;;;;5056089;28;20029;-60
2022/09/26 14:46:24;;;;;;;;;;;12.50;99.90;;;;;;5054929;28;19920;-60
2022/09/26 14:49:00;;;;;;;;;;;12.50;99.90;;;;;;5039234;28;19917;-60
2022/09/26 14:51:28;;;;;;;;;;;12.50;99.90;;;;;;5035917;28;19909;-60
2022/09/26 14:53:56;;;;;;;;;;;12.50;99.90;;;;;;5033363;28;20367;-60
2022/09/26 14:56:28;;;;;;;;;;;12.50;99.90;;;;;;5028980;28;19917;-60
2022/09/26 14:59:13;;;;;;;;;;;12.60;99.90;;;;;;5019777;28;19914;-60
2022/09/26 15:01:40;;;;;;;;;;;12.60;99.90;;;;;;5036137;28;19913;-59